METAR ET TAF INFORMATION
METAR FOR DRZA
ADDS - METARS form results

(1703 UTC 18 April 2021)
Data provider http://aviationweather.gov/metar/data/
 
Forecast for: DRZA (AGADEZ SOUTH (MI, NE)
Text: TAF DRZA 181100Z 1812/1912 12015KT CAVOK
Forecast period: 1200 UTC 18 April 2021 to 1200 UTC 19 April 2021
Forecast type: FROM: standard forecast or significant change
Winds: from the ESE (120 degrees) at 17 MPH (15 knots; 7.7 m/s)
Visibility: 6 or more miles (10+ km)
Ceiling: unknown
Clouds: missing
Weather: NSW  (no significant weather)

 AÉROPORT DE AÉROPORT

 INFORMATIONS DE PISTE
Piste 07 Longueur de la piste 9843 ft Largeur de la piste 98 ft
Élévation de la piste 1657 ft Seuil de la piste déplacés 0 ft Runway heading 68
Piste 25 Longueur de la piste 9843 ft Largeur de la piste 98 ft
Élévation de la piste 1660 ft Seuil de la piste déplacés 0 ft Runway heading 248

 AÉROPORT FRÉQUENCES
Type TWR Nom AGADES TWR Féquence 118.1 MHZ

 SIDA DE NAVIGATION
Type VOR Nom Agades Féquence 113500 KHZ
Type NDB Nom Agades Féquence 340 KHZ



Powered by Virtual Airlines Manager [v2.6.2]